Terminal Aerodrome Forecast
Issued by NWS Knoxville/Tri Cities, TN

Home | Current Version | Previous Version | Text Only | Print | Product List | Glossary On
Versions: 1 2 3 4 5 6 7 8 9 10 11 12 13 14 15
000
FTUS44 KMRX 241235 AAB
TAFTYS
TAF AMD
KTYS 241235Z 2413/2512 00000KT 1/2SM FZFG VV003
     FM241330 00000KT 3SM BR SCT003
     FM241400 00000KT P6SM SKC
     FM241700 23006KT P6SM SKC
     FM250000 23003KT P6SM FEW250
     FM251100 23004KT P6SM SCT100 BKN250=

USA.gov is the U.S. government's official web portal to all federal, state and local government web resources and services.